Time;durP1;ratioP1;P1;durP2;ratioP2;P2;SDS_P1;SDS_P2;PMS_P1;PMS_P2;Temp;Humidity;BMP_temperature;BMP_pressure;BME280_temperature;BME280_humidity;BME280_pressure;Samples;Min_cycle;Max_cycle;Signal;HPM_P1;HPM_P2
2022/04/02 00:00:56;;;;;;;12.48;5.15;;;;;;;1.24;70.88;101458.28;5024203;28;20045;-63
2022/04/02 00:03:22;;;;;;;12.80;5.55;;;;;;;1.25;70.78;101471.66;5024615;28;20571;-63
2022/04/02 00:05:47;;;;;;;9.48;5.20;;;;;;;1.27;70.85;101466.13;5024041;28;20093;-63
2022/04/02 00:08:13;;;;;;;10.75;5.35;;;;;;;1.26;71.04;101462.53;5024189;28;20029;-64
2022/04/02 00:10:38;;;;;;;11.05;5.45;;;;;;;1.27;70.69;101471.53;5024735;28;20030;-64
2022/04/02 00:13:04;;;;;;;13.85;5.70;;;;;;;1.27;70.63;101476.94;5022511;28;20030;-63
2022/04/02 00:15:29;;;;;;;11.70;5.65;;;;;;;1.26;70.77;101475.22;5023260;28;20076;-63
2022/04/02 00:17:54;;;;;;;11.18;6.30;;;;;;;1.27;70.35;101464.25;5022256;28;20056;-64
2022/04/02 00:20:20;;;;;;;13.45;6.18;;;;;;;1.29;69.98;101466.81;5031765;28;20022;-62
2022/04/02 00:25:32;;;;;;;10.73;4.88;;;;;;;1.36;68.85;101472.44;5024002;28;20518;-63
2022/04/02 00:27:57;;;;;;;10.30;6.15;;;;;;;1.31;69.25;101475.59;5023396;28;20104;-63
2022/04/02 00:30:22;;;;;;;12.07;6.13;;;;;;;1.32;68.51;101473.75;5022559;28;20100;-62
2022/04/02 00:32:48;;;;;;;13.15;6.65;;;;;;;1.30;69.67;101468.50;5024364;28;20026;-62
2022/04/02 00:35:14;;;;;;;11.52;5.90;;;;;;;1.30;68.72;101479.31;5023663;28;20061;-63
2022/04/02 00:37:40;;;;;;;11.05;6.22;;;;;;;1.29;69.59;101477.63;5022737;28;20071;-63
2022/04/02 00:40:05;;;;;;;14.70;7.55;;;;;;;1.29;69.64;101472.22;5021914;28;20458;-63
2022/04/02 00:42:30;;;;;;;15.23;6.28;;;;;;;1.26;70.19;101473.34;5023442;28;20037;-62
2022/04/02 00:44:56;;;;;;;13.95;6.43;;;;;;;1.25;69.37;101466.25;5022488;28;20149;-63
2022/04/02 00:47:22;;;;;;;12.43;6.53;;;;;;;1.25;68.74;101463.53;5020649;28;20060;-63
2022/04/02 00:49:47;;;;;;;12.52;6.15;;;;;;;1.24;69.27;101467.25;5021992;28;20476;-63
2022/04/02 00:52:13;;;;;;;14.80;6.63;;;;;;;1.25;69.01;101468.09;5021882;28;20491;-63
2022/04/02 00:54:39;;;;;;;15.55;6.72;;;;;;;1.25;68.66;101462.69;5024264;28;20028;-64
2022/04/02 00:57:06;;;;;;;14.57;6.47;;;;;;;1.24;68.87;101469.13;5024778;28;20432;-63
2022/04/02 00:59:31;;;;;;;12.85;6.47;;;;;;;1.25;68.97;101466.25;5021404;28;20052;-66
2022/04/02 01:01:57;;;;;;;15.70;7.20;;;;;;;1.27;68.75;101463.41;5021854;28;20480;-63
2022/04/02 01:04:22;;;;;;;15.32;6.70;;;;;;;1.24;68.52;101459.16;5022391;28;20033;-63
2022/04/02 01:06:48;;;;;;;15.90;6.97;;;;;;;1.23;69.17;101470.13;5023463;28;20038;-63
2022/04/02 01:09:13;;;;;;;11.98;6.40;;;;;;;1.22;69.73;101463.88;5023632;28;20032;-63
2022/04/02 01:11:44;;;;;;;12.98;5.85;;;;;;;1.20;69.93;101475.84;5023216;28;20025;-63
2022/04/02 01:14:11;;;;;;;11.65;6.18;;;;;;;1.19;69.62;101474.16;5027388;23;20519;-64
2022/04/02 01:16:36;;;;;;;12.70;5.78;;;;;;;1.24;68.12;101478.09;5021869;28;20034;-63
2022/04/02 01:19:03;;;;;;;12.25;6.13;;;;;;;1.27;67.98;101483.19;5022997;28;20041;-63
2022/04/02 01:21:29;;;;;;;15.02;6.60;;;;;;;1.19;68.76;101477.69;5022753;28;20566;-63
2022/04/02 01:23:59;;;;;;;12.43;6.00;;;;;;;1.15;69.34;101476.28;5015957;28;20057;-63
2022/04/02 01:26:25;;;;;;;12.40;5.95;;;;;;;1.14;69.79;101479.16;5020760;28;20451;-63
2022/04/02 01:28:54;;;;;;;11.43;5.72;;;;;;;1.17;68.57;101476.16;5023591;28;20021;-63
2022/04/02 01:31:22;;;;;;;10.55;5.57;;;;;;;1.12;69.21;101475.78;5022854;28;20029;-63
2022/04/02 01:33:49;;;;;;;11.18;5.43;;;;;;;1.11;68.96;101476.75;5022291;28;20092;-63
2022/04/02 01:36:15;;;;;;;8.57;5.75;;;;;;;1.09;69.07;101476.91;5021881;28;20022;-63
2022/04/02 01:38:40;;;;;;;10.55;6.10;;;;;;;1.08;69.26;101472.53;5023289;28;20569;-63
2022/04/02 01:41:05;;;;;;;10.35;5.60;;;;;;;1.08;68.92;101477.09;5023718;28;20021;-63
2022/04/02 01:43:31;;;;;;;10.85;5.55;;;;;;;1.12;68.67;101467.66;5022673;28;20525;-64
2022/04/02 01:45:57;;;;;;;10.73;5.32;;;;;;;1.08;68.38;101468.97;5022383;28;20036;-63
2022/04/02 01:48:23;;;;;;;12.13;5.78;;;;;;;1.06;68.56;101460.13;5021453;28;20021;-63
2022/04/02 01:50:49;;;;;;;13.60;5.63;;;;;;;1.06;68.65;101468.25;5022897;28;20029;-62
2022/04/02 01:53:15;;;;;;;11.55;5.80;;;;;;;1.04;68.49;101469.25;5022142;28;20052;-63
2022/04/02 01:55:40;;;;;;;11.63;5.90;;;;;;;1.03;69.39;101469.44;5022412;28;20021;-63
2022/04/02 01:58:06;;;;;;;9.48;5.38;;;;;;;1.02;69.07;101481.25;5021856;28;20076;-63
2022/04/02 02:00:31;;;;;;;11.68;6.10;;;;;;;0.98;69.38;101480.69;5022069;28;20034;-63
2022/04/02 02:02:57;;;;;;;10.02;5.82;;;;;;;0.96;69.71;101485.44;5023244;28;20075;-63
2022/04/02 02:05:22;;;;;;;9.88;5.35;;;;;;;0.95;69.84;101478.28;5022179;28;20392;-63
2022/04/02 02:07:49;;;;;;;12.02;5.47;;;;;;;0.95;68.95;101480.16;5022124;28;20121;-63
2022/04/02 02:10:14;;;;;;;11.48;5.68;;;;;;;0.91;70.04;101487.72;5022611;28;20044;-63
2022/04/02 02:12:39;;;;;;;8.35;5.00;;;;;;;0.92;69.40;101480.47;5022944;28;20104;-63
2022/04/02 02:15:05;;;;;;;9.43;5.13;;;;;;;0.90;69.43;101485.16;5022177;28;20068;-63
2022/04/02 02:17:30;;;;;;;8.18;5.05;;;;;;;0.88;68.89;101489.88;5018865;28;20068;-63
2022/04/02 02:19:56;;;;;;;9.40;4.85;;;;;;;0.95;68.60;101499.94;5015602;28;20117;-63
2022/04/02 02:22:21;;;;;;;10.10;5.35;;;;;;;0.86;69.21;101494.56;5037282;28;20044;-62
2022/04/02 02:24:46;;;;;;;10.60;4.95;;;;;;;0.86;68.61;101494.56;5023064;28;20480;-63
2022/04/02 02:27:11;;;;;;;10.20;5.28;;;;;;;0.85;69.64;101496.44;5021387;28;20030;-63
2022/04/02 02:29:37;;;;;;;9.88;4.97;;;;;;;0.85;68.91;101498.28;5021865;28;20438;-64
2022/04/02 02:32:02;;;;;;;9.13;4.78;;;;;;;0.83;69.58;101506.56;5022397;28;20039;-63
2022/04/02 02:37:11;;;;;;;9.27;4.68;;;;;;;0.79;69.91;101505.16;5022413;28;20071;-63
2022/04/02 02:39:37;;;;;;;9.38;5.30;;;;;;;0.79;69.75;101505.16;5022759;28;20512;-63
2022/04/02 02:42:03;;;;;;;11.23;5.15;;;;;;;0.77;69.97;101501.75;5020079;28;20097;-63
2022/04/02 02:44:28;;;;;;;10.18;4.88;;;;;;;0.81;68.62;101503.13;5020763;28;20028;-63
2022/04/02 02:46:53;;;;;;;9.57;4.65;;;;;;;0.76;69.95;101505.44;5022206;28;20468;-63
2022/04/02 02:49:18;;;;;;;9.00;4.53;;;;;;;0.71;70.81;101511.31;5021731;28;20485;-63
2022/04/02 02:51:44;;;;;;;8.82;4.13;;;;;;;1.08;67.64;101512.25;5022023;28;20030;-63
2022/04/02 02:54:09;;;;;;;10.52;5.15;;;;;;;0.81;68.44;101513.94;5021359;28;20048;-66
2022/04/02 02:56:34;;;;;;;8.88;4.85;;;;;;;0.71;69.92;101519.44;5022489;28;20135;-63
2022/04/02 02:58:59;;;;;;;9.80;4.68;;;;;;;0.65;70.32;101511.06;5022593;28;20084;-63
2022/04/02 03:01:25;;;;;;;9.82;4.65;;;;;;;0.63;70.93;101511.22;5020926;28;20152;-63
2022/04/02 03:03:50;;;;;;;10.80;4.65;;;;;;;0.64;70.54;101503.94;5022525;28;20029;-63
2022/04/02 03:06:15;;;;;;;8.65;4.85;;;;;;;0.59;70.30;101504.41;5020551;28;20102;-63
2022/04/02 03:08:41;;;;;;;7.72;4.45;;;;;;;0.59;71.12;101508.97;5017456;28;20018;-63
2022/04/02 03:11:06;;;;;;;8.43;4.40;;;;;;;0.57;71.21;101510.97;5003306;28;20022;-63
2022/04/02 03:13:32;;;;;;;8.60;4.55;;;;;;;0.57;70.73;101510.97;5007415;28;20049;-63
2022/04/02 03:15:57;;;;;;;8.80;4.43;;;;;;;0.56;70.93;101509.25;5021149;28;20028;-63
2022/04/02 03:18:22;;;;;;;11.85;4.63;;;;;;;0.52;71.00;101517.66;5021199;28;20006;-62
2022/04/02 03:20:47;;;;;;;9.25;4.53;;;;;;;0.52;70.52;101514.13;5022346;28;20068;-63
2022/04/02 03:23:13;;;;;;;9.18;4.30;;;;;;;0.54;70.51;101516.66;5021377;28;20033;-63
2022/04/02 03:25:38;;;;;;;9.05;4.05;;;;;;;0.54;70.29;101517.50;5020864;28;20092;-67
2022/04/02 03:28:04;;;;;;;7.97;4.85;;;;;;;0.52;70.75;101508.72;5024189;28;20049;-63
2022/04/02 03:30:30;;;;;;;9.00;4.50;;;;;;;0.51;70.84;101517.81;5024332;28;20446;-63
2022/04/02 03:32:55;;;;;;;10.88;4.93;;;;;;;0.51;70.59;101525.94;5025530;28;20029;-64
2022/04/02 03:35:21;;;;;;;9.60;4.60;;;;;;;0.48;70.68;101526.22;5025434;28;20124;-63
2022/04/02 03:37:48;;;;;;;8.50;4.50;;;;;;;0.46;71.35;101520.13;5025557;28;20021;-63
2022/04/02 03:40:17;;;;;;;9.27;5.00;;;;;;;0.41;71.81;101531.38;5024907;28;20096;-62
2022/04/02 03:42:44;;;;;;;8.68;4.55;;;;;;;0.40;71.59;101526.94;5023487;28;20562;-62
2022/04/02 03:45:12;;;;;;;9.30;4.82;;;;;;;0.38;71.42;101528.09;5021210;28;20021;-64
2022/04/02 03:47:37;;;;;;;8.07;4.67;;;;;;;0.41;70.66;101528.69;5024285;28;20034;-63
2022/04/02 03:50:03;;;;;;;9.98;4.38;;;;;;;0.39;70.93;101536.06;5024972;28;20288;-63
2022/04/02 03:52:29;;;;;;;8.70;4.55;;;;;;;0.39;71.00;101538.75;5024678;28;20029;-63
2022/04/02 03:54:54;;;;;;;8.85;4.90;;;;;;;0.39;71.00;101536.06;5025777;28;20036;-63
2022/04/02 03:57:20;;;;;;;8.70;4.30;;;;;;;0.37;70.96;101543.47;5024712;28;20116;-63
2022/04/02 03:59:46;;;;;;;9.07;4.43;;;;;;;0.36;71.17;101541.78;5022223;28;20091;-63
2022/04/02 04:02:12;;;;;;;10.05;4.57;;;;;;;0.35;71.04;101540.03;5021791;28;20041;-63
2022/04/02 04:04:38;;;;;;;8.35;4.35;;;;;;;0.33;71.10;101539.34;5025330;28;20044;-63
2022/04/02 04:07:04;;;;;;;7.85;4.38;;;;;;;0.35;71.29;101548.16;5024282;28;20025;-63
2022/04/02 04:09:29;;;;;;;9.00;4.32;;;;;;;0.34;71.71;101548.31;5024344;28;20048;-63
2022/04/02 04:11:54;;;;;;;7.97;4.10;;;;;;;0.33;71.59;101542.06;5023327;28;20467;-63
2022/04/02 04:14:22;;;;;;;7.95;4.20;;;;;;;0.32;71.64;101551.16;5023677;28;20183;-63
2022/04/02 04:16:48;;;;;;;8.95;4.88;;;;;;;0.33;71.94;101552.88;5025767;28;20137;-63
2022/04/02 04:19:13;;;;;;;7.43;4.47;;;;;;;0.34;71.65;101548.31;5024967;28;20336;-62
2022/04/02 04:21:39;;;;;;;8.80;4.10;;;;;;;0.35;71.17;101552.72;5024721;28;20076;-63
2022/04/02 04:24:05;;;;;;;6.95;4.00;;;;;;;0.34;70.80;101551.84;5024860;28;20484;-62
2022/04/02 04:26:31;;;;;;;8.13;4.20;;;;;;;0.34;71.05;101551.84;5022708;28;20108;-63
2022/04/02 04:28:56;;;;;;;9.18;4.43;;;;;;;0.34;71.16;101554.56;5026184;28;20033;-64
2022/04/02 04:31:22;;;;;;;8.35;4.57;;;;;;;0.34;71.35;101556.41;5044269;28;20036;-63
2022/04/02 04:33:48;;;;;;;5.28;3.17;;;;;;;0.40;70.65;101545.00;5044352;28;20048;-63
2022/04/02 04:36:15;;;;;;;8.48;4.47;;;;;;;0.36;71.04;101547.19;5044177;28;20483;-63
2022/04/02 04:38:41;;;;;;;8.98;4.22;;;;;;;0.36;71.33;101549.88;5041719;28;20585;-63
2022/04/02 04:41:06;;;;;;;7.25;3.80;;;;;;;0.35;71.18;101558.97;5024663;28;20025;-63
2022/04/02 04:43:32;;;;;;;12.57;4.47;;;;;;;0.35;71.31;101555.41;5024088;28;20042;-63
2022/04/02 04:45:58;;;;;;;8.88;4.03;;;;;;;0.35;71.29;101566.22;5023495;28;20432;-63
2022/04/02 04:48:23;;;;;;;9.00;4.53;;;;;;;0.34;71.15;101565.38;5020068;28;20106;-63
2022/04/02 04:50:48;;;;;;;7.57;3.92;;;;;;;0.33;70.89;101558.25;5023162;28;20037;-63
2022/04/02 04:53:14;;;;;;;9.85;4.18;;;;;;;0.35;71.21;101568.91;5022502;28;20106;-63
2022/04/02 04:55:40;;;;;;;7.50;3.92;;;;;;;0.34;71.24;101572.63;5023772;28;20035;-64
2022/04/02 04:58:05;;;;;;;8.25;3.90;;;;;;;0.33;71.09;101585.28;5023937;28;20029;-63
2022/04/02 05:00:31;;;;;;;8.32;4.07;;;;;;;0.30;71.69;101577.47;5022746;28;20064;-63
2022/04/02 05:02:57;;;;;;;7.78;4.28;;;;;;;0.29;71.28;101583.03;5023074;28;20026;-63
2022/04/02 05:05:23;;;;;;;7.75;3.95;;;;;;;0.29;71.41;101591.13;5023587;28;20471;-63
2022/04/02 05:07:49;;;;;;;9.10;4.63;;;;;;;0.27;71.93;101585.88;5022774;28;20029;-63
2022/04/02 05:10:15;;;;;;;10.05;4.88;;;;;;;0.29;71.58;101593.81;5023953;28;20163;-63
2022/04/02 05:12:40;;;;;;;7.80;3.92;;;;;;;0.31;71.33;101591.84;5023742;28;20116;-63
2022/04/02 05:15:09;;;;;;;9.77;4.00;;;;;;;0.28;71.68;101592.97;5022534;28;20041;-64
2022/04/02 05:17:37;;;;;;;6.60;3.90;;;;;;;0.30;71.23;101601.78;5024620;28;20104;-63
2022/04/02 05:20:14;;;;;;;8.13;4.50;;;;;;;0.26;72.27;101603.09;5023996;28;20546;-63
2022/04/02 05:22:40;;;;;;;6.35;4.18;;;;;;;0.24;72.31;101602.38;5021566;28;20059;-63
2022/04/02 05:25:06;;;;;;;7.20;3.90;;;;;;;0.24;72.13;101613.16;5023920;28;20087;-63
2022/04/02 05:27:33;;;;;;;8.43;3.63;;;;;;;0.35;70.78;101617.56;5023047;28;20030;-63
2022/04/02 05:29:59;;;;;;;7.50;3.90;;;;;;;0.28;72.76;101620.00;5022899;28;20403;-63
2022/04/02 05:32:24;;;;;;;6.20;3.63;;;;;;;0.30;72.59;101617.97;5022137;28;20026;-63
2022/04/02 05:34:49;;;;;;;8.48;4.00;;;;;;;0.31;72.63;101619.72;5022213;28;20120;-64
2022/04/02 05:37:14;;;;;;;6.70;3.60;;;;;;;0.51;70.96;101621.38;5022769;28;20068;-63
2022/04/02 05:39:41;;;;;;;6.65;3.83;;;;;;;0.35;72.42;101628.38;5022898;28;20060;-63
2022/04/02 05:42:07;;;;;;;7.95;3.83;;;;;;;0.51;71.71;101631.34;5023569;28;20025;-63
2022/04/02 05:44:32;;;;;;;8.48;3.80;;;;;;;0.40;72.22;101634.19;5020359;28;20460;-63
2022/04/02 05:46:58;;;;;;;8.38;4.10;;;;;;;0.41;73.31;101641.31;5023531;28;20025;-63
2022/04/02 05:49:23;;;;;;;7.50;3.70;;;;;;;0.43;72.51;101642.00;5022650;28;20102;-63
2022/04/02 05:51:48;;;;;;;8.35;4.18;;;;;;;0.46;72.23;101645.28;5021718;28;20529;-63
2022/04/02 05:54:14;;;;;;;7.88;4.03;;;;;;;0.50;72.89;101651.22;5022568;28;20041;-63
2022/04/02 05:56:40;;;;;;;8.95;4.30;;;;;;;0.51;72.91;101645.69;5022654;28;20487;-63
2022/04/02 05:59:05;;;;;;;9.75;4.15;;;;;;;0.56;71.96;101655.19;5022723;28;20575;-63
2022/04/02 06:01:32;;;;;;;8.32;3.75;;;;;;;0.67;71.38;101652.34;5021284;28;20663;-63
2022/04/02 06:03:57;;;;;;;7.18;3.70;;;;;;;0.62;72.08;101654.63;5021611;28;20064;-63
2022/04/02 06:06:23;;;;;;;7.70;3.78;;;;;;;0.64;72.64;101658.03;5020093;28;20025;-63
2022/04/02 06:08:48;;;;;;;7.93;4.00;;;;;;;0.65;73.04;101654.31;5022743;28;20116;-63
2022/04/02 06:11:13;;;;;;;6.10;3.55;;;;;;;0.68;72.34;101665.72;5021330;28;20033;-63
2022/04/02 06:13:39;;;;;;;9.02;3.85;;;;;;;0.74;71.84;101675.94;5019942;28;20500;-63
2022/04/02 06:16:06;;;;;;;7.47;3.90;;;;;;;0.77;72.02;101669.41;5018274;28;20025;-63
2022/04/02 06:18:31;;;;;;;7.85;3.92;;;;;;;0.84;72.26;101675.06;5022066;28;20022;-63
2022/04/02 06:20:56;;;;;;;8.88;4.22;;;;;;;0.88;71.64;101671.06;5022310;28;20025;-63
2022/04/02 06:23:22;;;;;;;9.23;4.13;;;;;;;0.96;71.66;101674.75;5021099;28;20071;-63
2022/04/02 06:25:48;;;;;;;9.65;4.13;;;;;;;0.99;71.64;101677.13;5019480;28;20101;-63
2022/04/02 06:28:14;;;;;;;6.80;3.88;;;;;;;1.08;71.73;101688.09;5021859;28;20130;-63
2022/04/02 06:30:39;;;;;;;8.93;4.40;;;;;;;1.14;72.18;101690.19;5021441;28;20579;-64
2022/04/02 06:33:05;;;;;;;8.93;4.40;;;;;;;1.20;71.25;101692.28;5023204;28;20030;-63
2022/04/02 06:35:30;;;;;;;6.75;3.60;;;;;;;1.28;71.35;101695.97;5021751;28;20527;-64
2022/04/02 06:37:56;;;;;;;9.55;3.85;;;;;;;1.36;70.86;101695.19;5022618;28;20033;-63
2022/04/02 06:40:24;;;;;;;8.50;4.07;;;;;;;1.42;70.65;101691.91;5020524;28;20025;-63
2022/04/02 06:42:49;;;;;;;7.50;3.95;;;;;;;1.48;70.39;101696.72;5022517;28;20041;-63
2022/04/02 06:45:15;;;;;;;7.97;3.80;;;;;;;1.55;70.53;101705.09;5022003;28;20357;-64
2022/04/02 06:47:41;;;;;;;10.73;4.47;;;;;;;1.61;70.27;101700.91;5022584;28;20036;-64
2022/04/02 06:50:10;;;;;;;7.25;3.75;;;;;;;1.66;70.88;101712.16;5021590;28;20471;-64
2022/04/02 06:52:36;;;;;;;7.43;3.72;;;;;;;1.71;69.78;101723.38;5021826;28;20029;-64
2022/04/02 06:55:01;;;;;;;8.55;3.60;;;;;;;1.66;69.37;101717.56;5022148;28;20624;-64
2022/04/02 06:57:27;;;;;;;8.30;3.88;;;;;;;1.70;69.57;101716.25;5022077;28;20056;-64
2022/04/02 06:59:52;;;;;;;7.75;4.03;;;;;;;1.76;69.01;101711.09;5020012;28;20026;-64
2022/04/02 07:02:18;;;;;;;9.80;4.07;;;;;;;1.83;68.98;101719.47;5023032;28;20029;-64
2022/04/02 07:04:44;;;;;;;7.13;4.13;;;;;;;1.90;70.07;101723.25;5024711;28;20033;-69
2022/04/02 07:07:10;;;;;;;9.52;4.65;;;;;;;2.01;68.86;101723.03;5025316;28;20076;-67
2022/04/02 07:09:35;;;;;;;10.60;4.60;;;;;;;2.06;67.71;101728.00;5025279;28;20021;-63
2022/04/02 07:12:01;;;;;;;9.52;4.75;;;;;;;2.13;68.89;101737.22;5024654;28;20111;-61
2022/04/02 07:14:27;;;;;;;8.63;4.90;;;;;;;2.27;67.96;101738.53;5021764;28;20139;-62
2022/04/02 07:16:52;;;;;;;8.00;4.07;;;;;;;2.35;66.10;101733.19;5025213;28;20033;-62
2022/04/02 07:19:22;;;;;;;11.00;5.10;;;;;;;2.49;67.38;101738.09;5019510;28;20079;-62
2022/04/02 07:21:53;;;;;;;8.32;4.18;;;;;;;2.70;66.79;101745.88;5024402;28;20052;-63
2022/04/02 07:24:19;;;;;;;6.78;3.80;;;;;;;2.85;66.33;101735.31;5021660;28;20128;-62
2022/04/02 07:26:45;;;;;;;7.40;3.65;;;;;;;3.10;65.92;101744.47;5023553;28;20364;-62
2022/04/02 07:29:12;;;;;;;8.15;3.60;;;;;;;3.24;65.77;101743.84;5024495;28;20044;-63
2022/04/02 07:31:38;;;;;;;9.73;3.80;;;;;;;3.37;64.99;101757.00;5025741;28;20040;-62
2022/04/02 07:34:03;;;;;;;6.03;2.72;;;;;;;3.69;62.59;101752.75;5025620;28;20025;-63
2022/04/02 07:36:55;;;;;;;6.60;2.78;;;;;;;3.98;63.74;101749.63;5020972;28;20038;-62
2022/04/02 07:39:44;;;;;;;6.28;3.83;;;;;;;4.03;63.23;101759.00;5024505;28;20104;-62
2022/04/02 07:42:26;;;;;;;8.30;3.88;;;;;;;4.29;62.53;101758.88;5003836;28;20038;-65
2022/04/02 07:45:08;;;;;;;5.03;3.33;;;;;;;4.81;58.25;101755.84;5024690;28;20117;-63
2022/04/02 07:47:36;;;;;;;6.18;3.30;;;;;;;4.47;60.12;101766.06;5023028;28;20039;-62
2022/04/02 07:50:09;;;;;;;;;;;;;;;4.46;61.47;101765.22;5025664;28;20032;-62
2022/04/02 07:52:36;;;;;;;9.25;4.38;;;;;;;4.54;59.90;101767.91;5024662;28;19918;-62
2022/04/02 07:55:06;;;;;;;7.93;3.97;;;;;;;4.48;60.29;101774.03;5025094;28;20112;-62
2022/04/02 07:57:44;;;;;;;8.45;3.88;;;;;;;4.60;60.35;101772.69;5024627;28;20017;-61
2022/04/02 08:00:12;;;;;;;7.13;4.25;;;;;;;4.92;56.79;101762.84;5022656;28;20033;-63
2022/04/02 08:02:42;;;;;;;7.70;3.60;;;;;;;4.51;59.09;101773.72;5025250;28;20377;-62
2022/04/02 08:05:12;;;;;;;7.90;4.47;;;;;;;4.53;61.54;101779.81;5024176;28;20037;-61
2022/04/02 08:07:39;;;;;;;8.48;4.45;;;;;;;4.75;56.87;101774.72;5024678;28;20452;-61
2022/04/02 08:10:10;;;;;;;8.25;4.30;;;;;;;4.50;59.52;101782.03;5024560;28;20274;-61
2022/04/02 08:12:37;;;;;;;7.75;3.72;;;;;;;4.75;56.70;101786.47;5023565;28;20032;-61
2022/04/02 08:15:09;;;;;;;9.57;5.25;;;;;;;4.79;56.49;101776.09;5021670;28;20045;-61
2022/04/02 08:17:40;;;;;;;6.50;2.97;;;;;;;4.42;57.14;101774.72;5023776;28;20025;-61
2022/04/02 08:20:06;;;;;;;6.63;4.25;;;;;;;4.78;57.24;101779.84;5024452;28;20064;-61
2022/04/02 08:22:32;;;;;;;9.52;5.35;;;;;;;4.78;57.21;101779.84;5022176;28;20491;-61
2022/04/02 08:24:58;;;;;;;7.32;4.32;;;;;;;4.60;58.26;101788.16;5023222;28;20132;-60
2022/04/02 08:27:35;;;;;;;7.18;4.47;;;;;;;4.45;60.91;101787.97;5023672;28;20055;-61
2022/04/02 08:30:17;;;;;;;9.30;4.05;;;;;;;4.76;58.11;101776.44;5022672;28;20059;-61
2022/04/02 08:33:12;;;;;;;7.85;4.85;;;;;;;4.78;57.79;101796.19;5021539;28;20021;-61
2022/04/02 08:36:22;;;;;;;8.15;4.10;;;;;;;4.51;58.22;101795.47;5024508;28;20084;-61
2022/04/02 08:39:00;;;;;;;7.00;3.70;;;;;;;4.11;58.26;101798.94;5011250;28;20029;-61
2022/04/02 08:41:26;;;;;;;;;;;;;;;4.46;58.08;101802.41;5022176;28;20034;-61
2022/04/02 08:44:25;;;;;;;6.28;3.78;;;;;;;3.88;60.11;101804.13;5022340;28;20315;-61
2022/04/02 08:47:21;;;;;;;7.05;5.07;;;;;;;4.04;59.13;101808.75;5023301;28;20036;-61
2022/04/02 08:50:07;;;;;;;6.53;4.07;;;;;;;3.97;60.02;101808.56;5023580;28;20056;-61
2022/04/02 08:53:00;;;;;;;9.23;5.43;;;;;;;4.01;59.01;101804.53;5020419;28;20087;-61
2022/04/02 08:55:44;;;;;;;7.97;5.05;;;;;;;3.31;61.16;101812.81;5022952;28;20041;-61
2022/04/02 08:58:25;;;;;;;7.72;4.45;;;;;;;3.44;62.53;101817.81;5022857;28;20133;-62
2022/04/02 09:01:10;;;;;;;7.63;4.63;;;;;;;3.63;61.69;101833.03;5022767;28;20463;-61
2022/04/02 09:04:01;;;;;;;9.77;4.85;;;;;;;3.49;62.04;101825.47;5021635;28;20090;-61
2022/04/02 09:06:54;;;;;;;6.75;4.13;;;;;;;3.67;62.28;101839.00;5022343;28;20033;-61
2022/04/02 09:09:51;;;;;;;8.18;3.75;;;;;;;3.92;60.73;101832.69;5022360;28;20259;-61
2022/04/02 09:12:54;;;;;;;8.88;5.90;;;;;;;4.04;60.41;101835.94;5021054;28;20028;-61
2022/04/02 09:15:29;;;;;;;6.97;4.13;;;;;;;3.68;61.90;101846.13;5021979;28;20080;-62
2022/04/02 09:18:02;;;;;;;7.38;4.07;;;;;;;3.68;61.41;101848.84;5022402;28;20416;-61
2022/04/02 09:20:52;;;;;;;9.20;4.18;;;;;;;3.96;60.73;101844.94;5022257;28;20021;-61
2022/04/02 09:23:44;;;;;;;7.82;3.92;;;;;;;3.99;61.61;101843.75;5020497;28;20123;-61
2022/04/02 09:26:46;;;;;;;5.97;3.67;;;;;;;4.10;61.32;101838.84;5002629;28;20062;-62
2022/04/02 09:29:26;;;;;;;8.23;4.97;;;;;;;4.43;59.18;101841.69;5010245;28;20064;-62
2022/04/02 09:32:16;;;;;;;7.45;4.10;;;;;;;5.25;58.79;101847.22;5022263;28;20559;-61
2022/04/02 09:34:56;;;;;;;6.85;4.38;;;;;;;5.55;57.07;101840.19;5022180;28;20506;-61
2022/04/02 09:37:47;;;;;;;8.23;4.43;;;;;;;6.77;55.94;101845.13;5021541;28;20029;-61
2022/04/02 09:40:12;;;;;;;6.97;4.55;;;;;;;7.71;53.38;101845.69;5019381;28;20029;-61
2022/04/02 09:42:46;;;;;;;9.15;4.85;;;;;;;7.96;51.09;101840.78;5022518;28;20037;-61
2022/04/02 09:45:21;;;;;;;8.48;4.57;;;;;;;7.97;49.38;101839.75;5021220;28;20034;-61
2022/04/02 09:48:12;;;;;;;6.28;3.95;;;;;;;8.35;49.83;101845.06;5022609;28;20468;-61
2022/04/02 09:50:37;;;;;;;6.47;4.18;;;;;;;8.71;49.17;101837.72;5023550;28;20040;-61
2022/04/02 09:53:21;;;;;;;6.50;3.95;;;;;;;8.26;49.79;101844.31;5020528;28;20021;-61
2022/04/02 09:56:01;;;;;;;5.80;3.67;;;;;;;8.17;49.46;101840.00;5022380;28;20037;-61
2022/04/02 09:58:43;;;;;;;6.18;3.55;;;;;;;7.62;50.60;101841.31;5020944;28;20033;-61
2022/04/02 10:01:18;;;;;;;7.60;4.05;;;;;;;6.45;50.77;101847.03;5022040;28;20578;-61
2022/04/02 10:04:08;;;;;;;7.47;4.20;;;;;;;5.67;55.76;101855.13;5018608;28;20021;-61
2022/04/02 10:06:41;;;;;;;6.68;3.67;;;;;;;5.74;54.10;101856.16;5020456;28;20033;-61
2022/04/02 10:09:11;;;;;;;8.82;4.38;;;;;;;5.25;53.59;101852.66;5019682;28;20648;-61
2022/04/02 10:11:46;;;;;;;6.20;4.00;;;;;;;5.11;53.06;101863.19;5021859;28;20038;-61
2022/04/02 10:14:17;;;;;;;7.63;4.60;;;;;;;4.49;55.97;101861.94;5019827;28;20068;-62
2022/04/02 10:16:50;;;;;;;7.13;4.30;;;;;;;4.25;58.23;101857.25;5021188;28;20034;-61
2022/04/02 10:19:17;;;;;;;7.97;4.32;;;;;;;4.11;58.60;101853.31;5020787;28;20021;-61
2022/04/02 10:21:47;;;;;;;9.15;4.82;;;;;;;4.19;58.13;101858.78;5020485;28;20098;-62
2022/04/02 10:24:23;;;;;;;5.95;3.70;;;;;;;4.73;55.52;101850.25;5019078;28;20026;-62
2022/04/02 10:26:52;;;;;;;7.25;4.25;;;;;;;4.35;57.95;101850.66;5002371;28;20036;-62
2022/04/02 10:29:34;;;;;;;8.15;4.55;;;;;;;4.15;59.01;101847.38;5016956;28;20590;-61
2022/04/02 10:32:01;;;;;;;5.18;3.08;;;;;;;4.52;57.37;101843.41;5021684;28;20038;-62
2022/04/02 10:34:48;;;;;;;7.78;4.80;;;;;;;4.35;58.33;101841.66;5020477;28;20108;-61
2022/04/02 10:37:17;;;;;;;5.57;3.85;;;;;;;4.89;55.43;101840.22;5021010;28;20426;-62
2022/04/02 10:39:57;;;;;;;5.80;3.60;;;;;;;4.85;56.31;101847.03;5024961;28;20535;-62
2022/04/02 10:42:31;;;;;;;10.20;4.50;;;;;;;4.15;57.85;101839.22;5025245;28;20036;-61
2022/04/02 10:45:04;;;;;;;7.85;4.38;;;;;;;4.57;56.20;101843.78;5023995;28;20026;-61
2022/04/02 10:47:30;;;;;;;8.70;4.47;;;;;;;4.00;58.88;101840.00;5023752;28;20038;-61
2022/04/02 10:50:03;;;;;;;9.60;5.03;;;;;;;4.94;54.66;101835.13;5025391;28;20620;-61
2022/04/02 10:52:30;;;;;;;8.00;4.57;;;;;;;4.44;56.03;101835.22;5024798;28;20025;-62
2022/04/02 10:54:56;;;;;;;8.38;4.65;;;;;;;3.98;59.98;101844.75;5024399;28;20037;-62
2022/04/02 10:57:21;;;;;;;9.40;4.40;;;;;;;4.11;60.02;101837.88;5023202;28;20427;-61
2022/04/02 10:59:47;;;;;;;8.27;4.60;;;;;;;4.31;58.55;101837.56;5022045;28;20025;-61
2022/04/02 11:02:22;;;;;;;8.13;4.43;;;;;;;4.35;57.35;101833.50;5024253;28;20026;-61
2022/04/02 11:05:07;;;;;;;7.47;4.35;;;;;;;5.01;55.34;101835.28;5023736;28;20072;-62
2022/04/02 11:07:40;;;;;;;7.55;4.13;;;;;;;4.75;55.72;101838.16;5018744;28;20038;-61
2022/04/02 11:10:07;;;;;;;7.38;4.38;;;;;;;6.26;55.08;101833.00;5011367;28;20028;-61
2022/04/02 11:12:38;;;;;;;5.43;3.13;;;;;;;7.87;46.59;101825.50;5024055;28;20095;-61
2022/04/02 11:15:17;;;;;;;8.50;4.18;;;;;;;7.78;50.36;101822.00;5024477;28;20042;-61
2022/04/02 11:17:45;;;;;;;8.57;4.47;;;;;;;7.40;48.94;101830.28;5025295;28;20056;-62
2022/04/02 11:20:21;;;;;;;6.63;3.92;;;;;;;7.01;47.21;101831.28;5023893;28;20221;-63
2022/04/02 11:22:59;;;;;;;5.88;3.72;;;;;;;6.43;47.88;101831.84;5024599;28;20045;-61
2022/04/02 11:25:29;;;;;;;6.80;3.92;;;;;;;6.34;46.83;101827.50;5023942;28;20072;-61
2022/04/02 11:27:59;;;;;;;6.30;3.83;;;;;;;5.45;48.33;101829.47;5023639;28;20480;-61
2022/04/02 11:30:30;;;;;;;4.90;2.92;;;;;;;5.66;47.47;101834.38;5024230;28;20018;-61
2022/04/02 11:33:22;;;;;;;6.72;3.50;;;;;;;5.67;46.96;101826.00;5025308;28;20030;-61
2022/04/02 11:35:54;;;;;;;4.28;2.78;;;;;;;5.89;45.19;101832.59;5024379;28;20025;-61
2022/04/02 11:38:20;;;;;;;5.88;2.75;;;;;;;5.71;45.79;101834.69;5023935;28;20124;-61
2022/04/02 11:41:10;;;;;;;5.47;3.05;;;;;;;5.69;47.74;101840.34;5024074;28;20363;-61
2022/04/02 11:43:38;;;;;;;4.82;2.47;;;;;;;6.03;45.14;101841.94;5019633;28;20045;-61
2022/04/02 11:46:08;;;;;;;4.50;2.97;;;;;;;6.31;45.93;101841.50;5022696;28;20025;-62
2022/04/02 11:48:36;;;;;;;6.38;2.85;;;;;;;6.46;43.80;101839.69;5037163;28;20140;-61